PANT Airport Information

Runway Information
Runway 02 Length 5709 ft width 150 ft
Elevation 93 ft Threshold 0 ft Heading 47
Runway 20 Length 5709 ft Width 150 ft
Elevation 94 ft Threshold 0 ft Heading 227
Runway 12 Length 7493 ft width 150 ft
Elevation 119 ft Threshold 0 ft Heading 148
Runway 30 Length 7493 ft Width 150 ft
Elevation 85 ft Threshold 0 ft Heading 328
Airport Frequencies
Type ASOS Name ASOS Frequency 135.75 MHZ
Type CTAF Name CTAF Frequency 122.9 MHZ
Type FSS Name KETCHIKAN Frequency 122.4 MHZ
Airport Navaids
Type VOR-DME Name Annette Island Frequency 117100 KHZ
Type NDB Name Nichols Frequency 266 KHZ
Airport Weather Information & NOTAM
ADDS - METARS form results

(0448 UTC 17 November 2018)
Data provider http://aviationweather.gov/metar/data/
 
METAR text: PANT 170353Z AUTO 00000KT 10SM BKN080 03/03 A3033 RMK SLP274 T00330033 TSNO VIA AUTODIAL
Conditions at: PANT (ANNETTE ISLAND , AK, US) observed 0353 UTC 17 November 2018
Temperature: 3.3°C (38°F)
Dewpoint: 3.3°C (38°F) [RH = 100%]
Pressure (altimeter): 30.33 inches Hg (1027.2 mb)
[Sea-level pressure: 1027.4 mb]
Winds: calm
Visibility: 10 or more miles (16+ km)
Ceiling: 8000 feet AGL
Clouds: broken clouds at 8000 feet AGL
Weather: no significant weather observed at this time